TKPN METAR and TAF | Updated Today

TKPN METAR

Vance W. Amory International Airport

Observation time: 26 min. ago

TKPN 052100Z 09020KT 9999 BKN018 26/22 Q1018

Need help? Read our tutorial on how to read METARs or read the parsed version below.

Vance W. Amory International Airport (TKPN) METAR

  • Weather conditions on Sun, 05 Feb 2023 21:00:00 +0000 (26 min. ago):
  • Present conditions: Dry
  • Clouds: Broken sky at 549 meters
  • Visibility: Greater than 10 km
  • Wind: 90 degrees at 20 knots
  • Temperature: 26 celsius
  • Dew point: 22 celsius
  • Pressure: 1018 millibars
  • Remarks: None


Useful to know...

TKPN TAF

Vance W. Amory International Airport

TAF TKPN 051700Z 0518/0618 08015KT 9999 SCT019 PROB30 TEMPO 0604/0612 08015G25KT SHRA
Observation time: 4:26 hr. ago
Need help? Read our tutorial on how to read TAFs or read the parsed version below.

Parsed version of TAF for Vance W. Amory International Airport (TKPN)

  • From 05 February at 18:00 UTC, to day 06 of the month at 18:00 UTC
  • Clouds: Scattered at 579 meters
  • Visibility: Greater than 10 km
  • Wind: 80 degrees at 15
  • Expected to arise temporarily, from 06 February at 04:00 UTC, to day 06 of the month at 12:00 UTC
    Probability of 30%
  • Wind: 80 degrees at 15
  • Other: Showers of rain